Time;durP1;ratioP1;P1;durP2;ratioP2;P2;SDS_P1;SDS_P2;PMS_P1;PMS_P2;Temp;Humidity;BMP_temperature;BMP_pressure;BME280_temperature;BME280_humidity;BME280_pressure;Samples;Min_cycle;Max_cycle;Signal;HPM_P1;HPM_P2
2022/02/16 00:02:12;;;;;;;23.10;12.25;;;-0.30;99.90;;;;;;5057633;28;20020;-95
2022/02/16 00:04:38;;;;;;;25.73;13.02;;;-0.30;99.90;;;;;;5056648;28;20021;-95
2022/02/16 00:07:05;;;;;;;22.60;11.82;;;-0.30;99.90;;;;;;5056810;28;20016;-95
2022/02/16 00:09:31;;;;;;;26.35;13.60;;;-0.30;99.90;;;;;;5057346;28;20028;-94
2022/02/16 00:11:57;;;;;;;22.52;12.52;;;-0.20;99.90;;;;;;5056759;28;20600;-94
2022/02/16 00:14:23;;;;;;;25.05;12.38;;;-0.10;99.90;;;;;;5056686;28;20028;-95
2022/02/16 00:16:49;;;;;;;26.52;13.45;;;-0.10;99.90;;;;;;5056990;28;20031;-95
2022/02/16 00:19:15;;;;;;;25.77;13.15;;;0.00;99.90;;;;;;5041429;28;20053;-94
2022/02/16 00:21:41;;;;;;;30.63;12.73;;;0.00;99.90;;;;;;5036744;28;20108;-95
2022/02/16 00:24:07;;;;;;;27.20;13.27;;;0.00;99.90;;;;;;5036775;28;20111;-95
2022/02/16 00:26:32;;;;;;;27.70;13.77;;;-0.10;99.90;;;;;;5036703;28;20431;-94
2022/02/16 00:28:58;;;;;;;19.08;11.15;;;-0.10;99.90;;;;;;5036656;28;20036;-94
2022/02/16 00:31:24;;;;;;;25.75;12.68;;;-0.10;99.90;;;;;;5036721;28;20029;-95
2022/02/16 00:33:49;;;;;;;21.40;10.88;;;-0.20;99.90;;;;;;5036505;28;20437;-95
2022/02/16 00:36:15;;;;;;;24.48;13.02;;;-0.20;99.90;;;;;;5036565;28;20029;-94
2022/02/16 00:38:41;;;;;;;24.10;12.50;;;-0.20;99.90;;;;;;5036749;28;20033;-95
2022/02/16 00:41:06;;;;;;;21.70;11.63;;;-0.10;99.90;;;;;;5039670;28;20367;-94
2022/02/16 00:43:32;;;;;;;30.88;14.50;;;-0.10;99.90;;;;;;5040759;28;20025;-94
2022/02/16 00:45:58;;;;;;;26.15;12.75;;;-0.10;99.90;;;;;;5052820;22;20084;-95
2022/02/16 00:48:24;;;;;;;28.85;13.68;;;-0.10;99.90;;;;;;5022373;28;20537;-95
2022/02/16 00:50:49;;;;;;;25.33;13.50;;;0.00;99.90;;;;;;5020641;28;20057;-95
2022/02/16 00:53:15;;;;;;;28.63;14.48;;;0.00;99.90;;;;;;5020625;28;20022;-95
2022/02/16 00:55:41;;;;;;;30.30;13.90;;;0.10;99.90;;;;;;5020543;28;20025;-94
2022/02/16 00:58:07;;;;;;;22.10;12.75;;;0.10;99.90;;;;;;5020586;28;20519;-95
2022/02/16 01:00:34;;;;;;;29.27;15.60;;;0.20;99.90;;;;;;5021113;28;20025;-94
2022/02/16 01:03:00;;;;;;;28.20;14.35;;;0.30;99.90;;;;;;5020551;28;20474;-95
2022/02/16 01:05:26;;;;;;;24.60;13.73;;;0.30;99.90;;;;;;5020770;28;20021;-94
2022/02/16 01:07:52;;;;;;;26.00;14.13;;;0.40;99.90;;;;;;5021894;28;20444;-95
2022/02/16 01:10:19;;;;;;;27.60;14.10;;;0.40;99.90;;;;;;5020354;28;20029;-95
2022/02/16 01:12:45;;;;;;;25.23;13.80;;;0.50;99.90;;;;;;5020729;28;20030;-94
2022/02/16 01:15:11;;;;;;;31.33;15.13;;;0.60;99.90;;;;;;5021198;28;20025;-94
2022/02/16 01:17:37;;;;;;;28.05;13.52;;;0.60;99.90;;;;;;5020965;28;20052;-95
2022/02/16 01:20:04;;;;;;;27.27;14.63;;;0.70;99.90;;;;;;5020770;28;20490;-96
2022/02/16 01:22:31;;;;;;;24.20;13.68;;;0.70;99.90;;;;;;5021898;28;20075;-95
2022/02/16 01:24:57;;;;;;;25.20;14.43;;;0.80;99.90;;;;;;5021056;28;20021;-95
2022/02/16 01:27:23;;;;;;;23.48;13.60;;;0.80;99.90;;;;;;5021262;28;20018;-94
2022/02/16 01:29:48;;;;;;;27.10;14.23;;;0.80;99.90;;;;;;5020976;28;20030;-95
2022/02/16 01:32:14;;;;;;;23.23;13.55;;;0.80;99.90;;;;;;5020247;28;20087;-94
2022/02/16 01:34:40;;;;;;;28.13;14.10;;;0.90;99.90;;;;;;5020830;28;20056;-95
2022/02/16 01:37:06;;;;;;;28.20;14.50;;;0.90;99.90;;;;;;5020306;28;20124;-96
2022/02/16 01:39:31;;;;;;;26.73;14.05;;;0.90;99.90;;;;;;5020334;28;20075;-95
2022/02/16 01:41:57;;;;;;;30.55;14.32;;;0.90;99.90;;;;;;5020304;28;20361;-95
2022/02/16 01:44:24;;;;;;;25.38;13.60;;;0.90;99.90;;;;;;5019893;28;20387;-95
2022/02/16 01:46:49;;;;;;;26.48;13.88;;;0.90;99.90;;;;;;5019557;28;20426;-95
2022/02/16 01:49:15;;;;;;;27.35;13.00;;;1.00;99.90;;;;;;5019822;28;20124;-95
2022/02/16 01:51:41;;;;;;;24.63;14.43;;;1.00;99.90;;;;;;5019001;28;20072;-95
2022/02/16 01:54:06;;;;;;;24.70;13.32;;;1.00;99.90;;;;;;5019907;28;20029;-95
2022/02/16 01:56:33;;;;;;;21.70;12.80;;;1.10;99.90;;;;;;5019347;28;20025;-95
2022/02/16 01:58:59;;;;;;;24.52;13.25;;;1.10;99.90;;;;;;5019356;28;20050;-95
2022/02/16 02:01:24;;;;;;;24.90;13.82;;;1.10;99.90;;;;;;5019648;28;20472;-95
2022/02/16 02:03:50;;;;;;;24.90;15.18;;;1.10;99.90;;;;;;5019448;28;20026;-95
2022/02/16 02:06:16;;;;;;;23.55;13.65;;;1.10;99.90;;;;;;5019611;28;20037;-95
2022/02/16 02:08:42;;;;;;;26.77;14.10;;;1.10;99.90;;;;;;5020194;28;20026;-95
2022/02/16 02:11:07;;;;;;;30.42;14.27;;;1.10;99.90;;;;;;5020083;28;20061;-95
2022/02/16 02:13:33;;;;;;;27.40;14.48;;;1.10;99.90;;;;;;5019880;28;20026;-95
2022/02/16 02:15:59;;;;;;;24.70;14.68;;;1.10;99.90;;;;;;5020466;28;20030;-94
2022/02/16 02:18:24;;;;;;;27.90;13.82;;;1.10;99.90;;;;;;5019488;28;20467;-95
2022/02/16 02:20:50;;;;;;;27.55;14.05;;;1.10;99.90;;;;;;5019550;28;20155;-95
2022/02/16 02:23:16;;;;;;;24.05;14.10;;;1.20;99.90;;;;;;5019365;28;20052;-95
2022/02/16 02:25:56;;;;;;;22.83;13.40;;;1.20;99.90;;;;;;5020308;28;20029;-95
2022/02/16 02:28:26;;;;;;;21.75;13.43;;;1.20;99.90;;;;;;5018820;28;20041;-95
2022/02/16 02:30:53;;;;;;;25.63;13.65;;;1.20;99.90;;;;;;5019235;28;20365;-95
2022/02/16 02:33:18;;;;;;;25.20;14.25;;;1.30;99.90;;;;;;5020292;28;20522;-94
2022/02/16 02:35:44;;;;;;;28.58;13.63;;;1.30;99.90;;;;;;5018848;28;20065;-95
2022/02/16 02:38:10;;;;;;;28.15;15.07;;;1.30;99.90;;;;;;5018922;28;20026;-95
2022/02/16 02:40:36;;;;;;;25.83;14.30;;;1.30;99.90;;;;;;5018748;28;20502;-95
2022/02/16 02:43:02;;;;;;;26.55;13.80;;;1.30;99.90;;;;;;5019159;28;20036;-95
2022/02/16 02:45:27;;;;;;;27.38;14.93;;;1.30;99.90;;;;;;5018929;28;20045;-96
2022/02/16 02:47:53;;;;;;;27.30;14.02;;;1.30;99.90;;;;;;5018481;28;20132;-95
2022/02/16 02:50:19;;;;;;;28.02;14.43;;;1.40;99.90;;;;;;5018515;28;20071;-95
2022/02/16 02:52:45;;;;;;;27.25;15.70;;;1.40;99.90;;;;;;5018423;28;20025;-95
2022/02/16 02:55:12;;;;;;;27.02;15.35;;;1.40;99.90;;;;;;5018862;28;20022;-95
2022/02/16 02:57:39;;;;;;;26.40;14.45;;;1.40;99.90;;;;;;5018455;28;20017;-95
2022/02/16 03:00:10;;;;;;;26.88;13.38;;;1.40;99.90;;;;;;5018430;28;20087;-95
2022/02/16 03:02:36;;;;;;;27.15;14.02;;;1.40;99.90;;;;;;5018622;28;20113;-96
2022/02/16 03:05:03;;;;;;;23.92;14.45;;;1.40;99.90;;;;;;5018774;28;20018;-96
2022/02/16 03:07:29;;;;;;;29.85;15.35;;;1.40;99.90;;;;;;5018374;28;20064;-95
2022/02/16 03:09:55;;;;;;;26.35;13.18;;;1.40;99.90;;;;;;5019162;28;20140;-95
2022/02/16 03:12:21;;;;;;;25.60;14.05;;;1.40;99.90;;;;;;5018325;28;20056;-95
2022/02/16 03:14:46;;;;;;;25.77;13.65;;;1.40;99.90;;;;;;5018060;28;20033;-95
2022/02/16 03:17:12;;;;;;;24.48;13.10;;;1.40;99.90;;;;;;5018095;28;20032;-95
2022/02/16 03:19:38;;;;;;;24.15;13.10;;;1.40;99.90;;;;;;5017779;28;20025;-95
2022/02/16 03:22:04;;;;;;;28.05;14.88;;;1.40;99.90;;;;;;5017898;28;20040;-96
2022/02/16 03:24:30;;;;;;;28.25;13.75;;;1.40;99.90;;;;;;5017951;28;20029;-96
2022/02/16 03:26:56;;;;;;;26.88;13.52;;;1.40;99.90;;;;;;5017851;28;20387;-95
2022/02/16 03:29:21;;;;;;;27.98;15.00;;;1.50;99.90;;;;;;5017819;28;20025;-95
2022/02/16 03:31:47;;;;;;;24.17;13.45;;;1.50;99.90;;;;;;5017535;28;20029;-95
2022/02/16 03:34:13;;;;;;;35.05;16.30;;;1.50;99.90;;;;;;5018168;28;20056;-96
2022/02/16 03:36:39;;;;;;;32.60;16.48;;;1.50;99.90;;;;;;5017498;28;20097;-95
2022/02/16 03:39:05;;;;;;;30.33;15.40;;;1.50;99.90;;;;;;5017410;28;20112;-95
2022/02/16 03:41:31;;;;;;;42.03;19.25;;;1.60;99.90;;;;;;5017390;28;20022;-95
2022/02/16 03:43:57;;;;;;;37.10;17.33;;;1.50;99.90;;;;;;5018364;28;20029;-95
2022/02/16 03:46:22;;;;;;;34.13;15.38;;;1.60;99.90;;;;;;5013980;28;20101;-95
2022/02/16 03:48:48;;;;;;;25.92;13.63;;;1.60;99.90;;;;;;5014626;28;20026;-95
2022/02/16 03:51:16;;;;;;;28.38;14.38;;;1.60;99.90;;;;;;5014285;28;20468;-95
2022/02/16 03:53:42;;;;;;;35.80;16.30;;;1.60;99.90;;;;;;5014067;28;20504;-96
2022/02/16 03:56:08;;;;;;;32.75;15.27;;;1.60;99.90;;;;;;5013845;28;20495;-96
2022/02/16 03:58:33;;;;;;;31.63;14.93;;;1.60;99.90;;;;;;5014421;28;20035;-95
2022/02/16 04:00:59;;;;;;;27.77;14.05;;;1.70;99.90;;;;;;5013848;28;20025;-95
2022/02/16 04:03:25;;;;;;;30.90;14.98;;;1.60;99.90;;;;;;5013751;28;20026;-94
2022/02/16 04:05:51;;;;;;;24.08;14.35;;;1.60;99.90;;;;;;5014079;28;20419;-96
2022/02/16 04:08:16;;;;;;;33.00;16.13;;;1.60;99.90;;;;;;5014195;28;20369;-95
2022/02/16 04:10:42;;;;;;;34.70;16.60;;;1.60;99.90;;;;;;5015585;28;20030;-95
2022/02/16 04:13:09;;;;;;;38.22;17.30;;;1.60;99.90;;;;;;5014221;28;20022;-96
2022/02/16 04:15:36;;;;;;;37.85;18.65;;;1.70;99.90;;;;;;5013520;28;20034;-95
2022/02/16 04:18:02;;;;;;;37.53;17.15;;;1.70;99.90;;;;;;5013448;28;20030;-95
2022/02/16 04:20:28;;;;;;;36.42;16.60;;;1.70;99.90;;;;;;5013519;28;20018;-96
2022/02/16 04:22:53;;;;;;;33.50;15.90;;;1.70;99.90;;;;;;5013572;28;20105;-95
2022/02/16 04:25:19;;;;;;;30.83;13.95;;;1.70;99.90;;;;;;5013647;28;20114;-95
2022/02/16 04:27:46;;;;;;;37.17;17.45;;;1.70;99.90;;;;;;5013455;28;20022;-95
2022/02/16 04:30:12;;;;;;;34.78;15.60;;;1.70;99.90;;;;;;5013451;28;20080;-95
2022/02/16 04:32:38;;;;;;;29.33;15.13;;;1.70;99.90;;;;;;5013682;28;20025;-95
2022/02/16 04:35:05;;;;;;;28.88;14.15;;;1.70;99.90;;;;;;5014491;28;20033;-95
2022/02/16 04:37:31;;;;;;;27.48;14.77;;;1.70;99.90;;;;;;5013815;28;20457;-95
2022/02/16 04:39:57;;;;;;;26.65;14.43;;;1.70;99.90;;;;;;5013551;28;20033;-95
2022/02/16 04:42:24;;;;;;;32.40;15.00;;;1.80;99.90;;;;;;5013433;28;20107;-96
2022/02/16 04:44:49;;;;;;;27.30;15.15;;;1.70;99.90;;;;;;5013399;28;20113;-96
2022/02/16 04:47:15;;;;;;;36.30;16.02;;;1.70;99.90;;;;;;5014059;28;20606;-95
2022/02/16 04:49:44;;;;;;;31.48;16.48;;;1.80;99.90;;;;;;5014670;28;20120;-94
2022/02/16 04:52:09;;;;;;;46.25;19.20;;;1.80;99.90;;;;;;5013403;28;20034;-95
2022/02/16 04:54:36;;;;;;;37.28;17.50;;;1.80;99.90;;;;;;5013421;28;20033;-94
2022/02/16 04:57:02;;;;;;;32.28;16.27;;;1.80;99.90;;;;;;5013535;28;20048;-96
2022/02/16 04:59:28;;;;;;;41.00;18.08;;;1.80;99.90;;;;;;5014160;28;20523;-96
2022/02/16 05:01:53;;;;;;;34.92;16.92;;;1.80;99.90;;;;;;5013043;28;20120;-96
2022/02/16 05:04:19;;;;;;;35.80;17.02;;;1.80;99.90;;;;;;5013464;28;20400;-96
2022/02/16 05:06:45;;;;;;;50.15;21.00;;;1.90;99.90;;;;;;5013548;28;20056;-95
2022/02/16 05:09:11;;;;;;;46.25;21.38;;;1.80;99.90;;;;;;5014025;28;20061;-95
2022/02/16 05:13:29;;;;;;;55.25;22.40;;;1.90;99.90;;;;;;5092179;28;20386;-94
2022/02/16 05:15:55;;;;;;;46.33;22.90;;;1.90;99.90;;;;;;5091050;28;20025;-96
2022/02/16 05:18:20;;;;;;;51.65;22.95;;;1.90;99.90;;;;;;5091525;28;20024;-96
2022/02/16 05:20:46;;;;;;;55.20;23.88;;;1.90;99.90;;;;;;5090829;28;20035;-95
2022/02/16 05:23:12;;;;;;;52.25;23.48;;;1.90;99.90;;;;;;5090702;28;20047;-96
2022/02/16 05:25:37;;;;;;;51.78;23.60;;;1.90;99.90;;;;;;5091092;28;20020;-96
2022/02/16 05:28:03;;;;;;;48.70;22.83;;;1.90;99.90;;;;;;5090755;28;20445;-96
2022/02/16 05:30:29;;;;;;;51.42;23.92;;;1.90;99.90;;;;;;5090701;28;20054;-96
2022/02/16 05:32:54;;;;;;;57.67;26.23;;;2.00;99.90;;;;;;5090662;28;20028;-95
2022/02/16 05:35:20;;;;;;;47.75;23.58;;;2.00;99.90;;;;;;5090527;28;20035;-95
2022/02/16 05:37:46;;;;;;;51.85;24.80;;;2.10;99.90;;;;;;5090348;28;20020;-96
2022/02/16 05:40:12;;;;;;;53.20;24.33;;;2.00;99.90;;;;;;5090376;28;20028;-95
2022/02/16 05:42:38;;;;;;;66.40;27.13;;;2.00;99.90;;;;;;5090291;28;21706;-95
2022/02/16 05:45:04;;;;;;;72.80;32.22;;;2.10;99.90;;;;;;5090095;28;20028;-94
2022/02/16 05:47:29;;;;;;;71.63;31.48;;;2.10;99.90;;;;;;5090443;28;20024;-95
2022/02/16 05:49:55;;;;;;;81.57;31.73;;;2.10;99.90;;;;;;5090156;28;20026;-95
2022/02/16 05:52:21;;;;;;;77.53;34.20;;;2.10;99.90;;;;;;5090847;28;20036;-94
2022/02/16 05:54:46;;;;;;;98.03;35.00;;;2.10;99.90;;;;;;5091066;28;20051;-95
2022/02/16 05:57:13;;;;;;;100.72;39.22;;;2.20;99.90;;;;;;5089951;28;20066;-96
2022/02/16 05:59:39;;;;;;;112.78;41.63;;;2.20;99.90;;;;;;5090678;28;20115;-96
2022/02/16 06:02:06;;;;;;;97.75;37.15;;;2.20;99.90;;;;;;5090294;28;20056;-94
2022/02/16 06:04:35;;;;;;;106.28;38.75;;;2.20;99.90;;;;;;5089822;28;20474;-95
2022/02/16 06:07:01;;;;;;;102.72;38.63;;;2.20;99.90;;;;;;5089785;28;20035;-95
2022/02/16 06:09:27;;;;;;;99.25;38.88;;;2.20;99.90;;;;;;5090189;28;20466;-95
2022/02/16 06:11:53;;;;;;;121.28;43.95;;;2.20;99.90;;;;;;5090132;28;20060;-95
2022/02/16 06:14:19;;;;;;;100.10;38.15;;;2.20;99.90;;;;;;5089705;28;20413;-95
2022/02/16 06:16:45;;;;;;;114.35;40.30;;;2.30;99.90;;;;;;5089705;28;20482;-94
2022/02/16 06:19:11;;;;;;;121.63;41.35;;;2.30;99.90;;;;;;5089946;28;20028;-95
2022/02/16 06:21:36;;;;;;;127.47;47.22;;;2.30;99.90;;;;;;5089540;28;20027;-95
2022/02/16 06:24:02;;;;;;;114.72;45.03;;;2.20;99.90;;;;;;5080539;28;20063;-95
2022/02/16 06:26:28;;;;;;;113.70;42.00;;;2.20;99.90;;;;;;5076060;28;20020;-95
2022/02/16 06:28:54;;;;;;;112.53;41.22;;;2.30;99.90;;;;;;5075937;28;20082;-96
2022/02/16 06:31:19;;;;;;;76.47;32.67;;;2.30;99.90;;;;;;5076069;28;20064;-95
2022/02/16 06:33:45;;;;;;;74.95;33.40;;;2.30;99.90;;;;;;5076733;28;20098;-95
2022/02/16 06:36:11;;;;;;;63.40;28.20;;;2.30;99.90;;;;;;5077364;28;20090;-94
2022/02/16 06:38:37;;;;;;;73.10;30.95;;;2.40;99.90;;;;;;5075691;28;20047;-95
2022/02/16 06:41:04;;;;;;;75.68;31.92;;;2.40;99.90;;;;;;5076063;28;20021;-95
2022/02/16 06:43:30;;;;;;;64.15;30.58;;;2.40;99.90;;;;;;5075883;28;20025;-95
2022/02/16 06:45:55;;;;;;;55.22;27.73;;;2.40;99.90;;;;;;5075678;28;20482;-95
2022/02/16 06:48:21;;;;;;;59.90;26.60;;;2.50;99.90;;;;;;5075559;28;20048;-94
2022/02/16 06:50:47;;;;;;;56.28;26.33;;;2.50;99.90;;;;;;5075804;28;20363;-94
2022/02/16 06:53:13;;;;;;;59.05;27.98;;;2.50;99.90;;;;;;5075488;28;20095;-94
2022/02/16 06:55:39;;;;;;;58.70;28.75;;;2.50;99.90;;;;;;5075586;28;20103;-94
2022/02/16 06:58:05;;;;;;;82.75;34.10;;;2.50;99.90;;;;;;5075493;28;20017;-95
2022/02/16 07:00:30;;;;;;;96.38;38.70;;;2.60;99.90;;;;;;5075373;28;20474;-95
2022/02/16 07:02:56;;;;;;;102.88;38.63;;;2.60;99.90;;;;;;5075928;28;20025;-94
2022/02/16 07:05:22;;;;;;;115.97;42.92;;;2.60;99.90;;;;;;5076159;28;20028;-95
2022/02/16 07:07:48;;;;;;;121.57;42.60;;;2.60;99.90;;;;;;5075288;28;20020;-95
2022/02/16 07:10:13;;;;;;;116.70;43.35;;;2.70;99.90;;;;;;5075271;28;20021;-94
2022/02/16 07:12:39;;;;;;;122.72;43.08;;;2.70;99.90;;;;;;5074811;28;20059;-95
2022/02/16 07:15:11;;;;;;;124.65;45.08;;;2.70;99.90;;;;;;5076208;28;20048;-95
2022/02/16 07:17:39;;;;;;;121.28;44.15;;;2.70;99.90;;;;;;5075372;28;20078;-94
2022/02/16 07:20:10;;;;;;;112.72;41.13;;;2.60;99.90;;;;;;5074862;28;20112;-94
2022/02/16 07:22:47;;;;;;;121.28;43.85;;;2.60;99.90;;;;;;5074957;28;20052;-93
2022/02/16 07:25:13;;;;;;;131.88;43.50;;;2.70;99.90;;;;;;5074742;28;20024;-94
2022/02/16 07:27:39;;;;;;;121.00;43.78;;;2.70;99.90;;;;;;5075098;28;20029;-93
2022/02/16 07:30:09;;;;;;;141.30;46.58;;;2.70;99.90;;;;;;5074691;28;20047;-94
2022/02/16 07:32:42;;;;;;;110.45;38.70;;;2.70;99.90;;;;;;5074606;28;20105;-94
2022/02/16 07:35:10;;;;;;;102.80;39.35;;;2.60;99.90;;;;;;5073732;28;20024;-93
2022/02/16 07:37:36;;;;;;;104.70;38.88;;;2.70;99.90;;;;;;5074686;28;20021;-94
2022/02/16 07:40:04;;;;;;;109.75;39.70;;;2.70;99.90;;;;;;5074691;28;20035;-93
2022/02/16 07:42:30;;;;;;;98.85;36.88;;;2.70;99.90;;;;;;5074747;28;20029;-93
2022/02/16 07:44:55;;;;;;;90.68;38.30;;;2.70;99.90;;;;;;5074274;28;20051;-93
2022/02/16 07:47:22;;;;;;;94.55;36.22;;;2.70;99.90;;;;;;5074565;28;20032;-94
2022/02/16 07:49:48;;;;;;;69.80;30.88;;;2.80;99.90;;;;;;5074217;28;20028;-94
2022/02/16 07:52:13;;;;;;;76.93;31.00;;;2.80;99.90;;;;;;5074118;28;20029;-94
2022/02/16 07:54:39;;;;;;;66.90;28.92;;;2.90;99.90;;;;;;5074765;28;20413;-93
2022/02/16 07:57:05;;;;;;;64.18;28.40;;;2.90;99.90;;;;;;5074771;28;20084;-93
2022/02/16 07:59:30;;;;;;;61.28;27.20;;;3.00;99.90;;;;;;5074329;28;20024;-94
2022/02/16 08:01:57;;;;;;;49.20;25.38;;;2.90;99.90;;;;;;5074403;28;20029;-95
2022/02/16 08:04:26;;;;;;;71.05;31.13;;;3.00;99.90;;;;;;5073965;28;20050;-94
2022/02/16 08:06:52;;;;;;;68.18;30.88;;;3.00;99.90;;;;;;5073935;28;20055;-93
2022/02/16 08:09:19;;;;;;;64.15;27.27;;;3.00;99.90;;;;;;5073906;28;20060;-94
2022/02/16 08:11:46;;;;;;;74.95;29.17;;;3.00;99.90;;;;;;5073982;28;20044;-94
2022/02/16 08:14:13;;;;;;;87.97;33.25;;;3.00;99.90;;;;;;5073802;28;20046;-94
2022/02/16 08:16:39;;;;;;;70.88;28.63;;;3.00;99.90;;;;;;5074184;28;20052;-94
2022/02/16 08:19:07;;;;;;;72.22;29.30;;;3.00;99.90;;;;;;5073857;28;20059;-94
2022/02/16 08:21:34;;;;;;;86.18;34.70;;;3.00;99.90;;;;;;5073828;28;20029;-94
2022/02/16 08:24:01;;;;;;;96.88;36.80;;;3.00;99.90;;;;;;5073520;28;20028;-93
2022/02/16 08:26:27;;;;;;;91.75;36.45;;;3.00;99.90;;;;;;5073295;28;20120;-94
2022/02/16 08:28:53;;;;;;;82.05;33.97;;;3.00;99.90;;;;;;5073741;28;20029;-95
2022/02/16 08:31:18;;;;;;;94.30;36.08;;;3.10;99.90;;;;;;5073302;28;20035;-94
2022/02/16 08:33:46;;;;;;;116.25;39.88;;;3.10;99.90;;;;;;5074119;28;20046;-96
2022/02/16 08:36:12;;;;;;;133.52;46.47;;;3.00;99.90;;;;;;5073405;28;20442;-95
2022/02/16 08:38:39;;;;;;;122.38;43.80;;;3.00;99.90;;;;;;5073428;28;20024;-95
2022/02/16 08:41:05;;;;;;;124.10;43.47;;;3.00;99.90;;;;;;5073682;28;20039;-94
2022/02/16 08:43:31;;;;;;;111.32;40.33;;;3.00;99.90;;;;;;5073541;28;20024;-94
2022/02/16 08:46:00;;;;;;;93.90;38.15;;;3.00;99.90;;;;;;5073073;28;20031;-95
2022/02/16 08:48:28;;;;;;;109.50;38.72;;;3.10;99.90;;;;;;5073353;28;20493;-95
2022/02/16 08:50:55;;;;;;;94.38;35.50;;;3.00;99.90;;;;;;5073625;28;20021;-94
2022/02/16 08:53:26;;;;;;;107.93;37.47;;;3.00;99.90;;;;;;5073355;28;20032;-94
2022/02/16 08:55:52;;;;;;;90.68;37.85;;;3.10;99.90;;;;;;5073387;28;20035;-94
2022/02/16 08:58:20;;;;;;;85.35;37.40;;;3.00;99.90;;;;;;5073199;28;20390;-94
2022/02/16 09:00:48;;;;;;;79.20;35.25;;;3.00;99.90;;;;;;5073548;28;20474;-93
2022/02/16 09:03:15;;;;;;;77.72;37.95;;;3.00;99.90;;;;;;5073133;28;20567;-94
2022/02/16 09:05:41;;;;;;;90.88;44.83;;;3.00;99.90;;;;;;5073570;28;20522;-93
2022/02/16 09:08:07;;;;;;;93.57;50.75;;;3.00;99.90;;;;;;5073093;28;20025;-93
2022/02/16 09:10:33;;;;;;;89.97;49.58;;;3.00;99.90;;;;;;5073409;28;20035;-93
2022/02/16 09:12:58;;;;;;;83.45;47.25;;;3.00;99.90;;;;;;5073058;28;20049;-93
2022/02/16 09:15:26;;;;;;;82.35;46.72;;;3.00;99.90;;;;;;5073236;28;20112;-93
2022/02/16 09:17:57;;;;;;;79.70;42.53;;;3.00;99.90;;;;;;5073396;28;20096;-93
2022/02/16 09:20:24;;;;;;;99.75;53.28;;;3.00;99.90;;;;;;5073176;28;20021;-94
2022/02/16 09:22:50;;;;;;;83.32;46.08;;;3.00;99.90;;;;;;5073523;28;20116;-94
2022/02/16 09:25:15;;;;;;;63.35;38.10;;;3.10;99.90;;;;;;5073094;28;20124;-94
2022/02/16 09:27:42;;;;;;;60.33;36.75;;;3.10;99.90;;;;;;5073170;28;20533;-93
2022/02/16 09:30:09;;;;;;;60.13;35.90;;;3.10;99.90;;;;;;5072919;28;20028;-94
2022/02/16 09:32:35;;;;;;;61.03;34.25;;;3.10;99.90;;;;;;5073084;28;20116;-93
2022/02/16 09:35:01;;;;;;;67.30;40.08;;;3.10;99.90;;;;;;5073104;28;20028;-94
2022/02/16 09:37:27;;;;;;;64.53;38.90;;;3.10;99.90;;;;;;5072921;28;20017;-93
2022/02/16 09:39:53;;;;;;;56.63;36.10;;;3.10;99.90;;;;;;5072814;28;20017;-93
2022/02/16 09:42:21;;;;;;;57.47;36.78;;;3.20;99.90;;;;;;5072931;28;20386;-93
2022/02/16 09:45:00;;;;;;;60.85;35.50;;;3.20;99.90;;;;;;5073004;28;20025;-93
2022/02/16 09:47:32;;;;;;;62.47;36.92;;;3.10;99.90;;;;;;5072916;28;20060;-93
2022/02/16 09:49:59;;;;;;;50.83;32.10;;;3.20;99.90;;;;;;5072800;28;20024;-93
2022/02/16 09:52:25;;;;;;;55.40;32.95;;;3.30;99.90;;;;;;5072429;28;20024;-93
2022/02/16 09:54:51;;;;;;;61.40;35.88;;;3.30;99.90;;;;;;5072737;28;20032;-94
2022/02/16 09:57:19;;;;;;;47.80;29.73;;;3.30;99.90;;;;;;5072572;28;20070;-93
2022/02/16 09:59:45;;;;;;;46.85;23.88;;;3.40;99.90;;;;;;5075229;28;20036;-92
2022/02/16 10:02:14;;;;;;;41.03;21.58;;;3.40;99.90;;;;;;5076336;28;20035;-94
2022/02/16 10:04:52;;;;;;;47.33;26.00;;;3.40;99.90;;;;;;5076390;28;20032;-94
2022/02/16 10:07:33;;;;;;;39.90;21.55;;;3.40;99.90;;;;;;5076382;28;20126;-94
2022/02/16 10:10:14;;;;;;;41.33;20.88;;;3.40;99.90;;;;;;5075999;28;20025;-93
2022/02/16 10:12:44;;;;;;;39.20;22.33;;;3.40;99.90;;;;;;5075912;28;20064;-94
2022/02/16 10:15:11;;;;;;;40.67;20.58;;;3.50;99.90;;;;;;5076254;28;20056;-94
2022/02/16 10:17:37;;;;;;;48.75;22.98;;;3.50;99.90;;;;;;5076365;28;20463;-94
2022/02/16 10:20:06;;;;;;;40.17;21.17;;;3.50;99.90;;;;;;5076315;28;20031;-94
2022/02/16 10:22:47;;;;;;;42.08;21.48;;;3.50;99.90;;;;;;5076335;28;20078;-94
2022/02/16 10:25:19;;;;;;;41.30;21.92;;;3.50;99.90;;;;;;5075885;28;20029;-95
2022/02/16 10:28:03;;;;;;;45.35;22.92;;;3.60;99.90;;;;;;5075974;28;20032;-92
2022/02/16 10:30:29;;;;;;;41.55;21.83;;;3.60;99.90;;;;;;5076090;28;20028;-94
2022/02/16 10:33:19;;;;;;;42.30;21.27;;;3.60;99.90;;;;;;5075674;28;20493;-94
2022/02/16 10:35:46;;;;;;;36.00;20.52;;;3.60;99.90;;;;;;5075764;28;20024;-94
2022/02/16 10:38:12;;;;;;;42.83;20.92;;;3.60;99.90;;;;;;5075745;28;20037;-94
2022/02/16 10:40:38;;;;;;;38.72;21.55;;;3.60;99.90;;;;;;5075789;28;20028;-94
2022/02/16 10:43:04;;;;;;;44.22;21.67;;;3.60;99.90;;;;;;5075434;28;20035;-94
2022/02/16 10:45:31;;;;;;;37.60;20.23;;;3.60;99.90;;;;;;5075671;28;20028;-94
2022/02/16 10:47:57;;;;;;;39.85;20.75;;;3.60;99.90;;;;;;5075542;28;20555;-94
2022/02/16 10:50:27;;;;;;;39.63;20.63;;;3.70;99.90;;;;;;5075953;28;20032;-94
2022/02/16 10:52:59;;;;;;;39.72;21.45;;;3.70;99.90;;;;;;5075035;28;20056;-94
2022/02/16 10:55:43;;;;;;;44.67;21.88;;;3.70;99.90;;;;;;5075566;28;20020;-94
2022/02/16 10:58:14;;;;;;;38.75;21.92;;;3.70;99.90;;;;;;5075811;28;20024;-94
2022/02/16 11:00:42;;;;;;;36.08;21.08;;;3.70;99.90;;;;;;5075787;28;20017;-95
2022/02/16 11:03:09;;;;;;;36.33;20.20;;;3.70;99.90;;;;;;5075741;28;20089;-96
2022/02/16 11:05:42;;;;;;;40.47;21.80;;;3.80;99.90;;;;;;5075316;28;20082;-94
2022/02/16 11:08:13;;;;;;;42.65;21.00;;;3.90;99.90;;;;;;5075559;28;20035;-94
2022/02/16 11:10:40;;;;;;;41.30;22.33;;;3.90;99.90;;;;;;5075382;28;20038;-94
2022/02/16 11:13:07;;;;;;;39.88;21.60;;;3.90;99.90;;;;;;5074859;28;20053;-93
2022/02/16 11:15:33;;;;;;;42.97;21.45;;;4.00;99.90;;;;;;5075182;28;20063;-94
2022/02/16 11:18:17;;;;;;;40.22;21.10;;;4.00;99.90;;;;;;5075613;28;20048;-95
2022/02/16 11:20:43;;;;;;;37.00;21.25;;;4.10;99.90;;;;;;5074990;28;20025;-95
2022/02/16 11:23:13;;;;;;;38.97;21.05;;;4.10;99.90;;;;;;5075134;28;20017;-95
2022/02/16 11:25:41;;;;;;;40.00;22.02;;;4.10;99.90;;;;;;5075283;28;20471;-95
2022/02/16 11:28:12;;;;;;;36.38;20.95;;;4.00;99.90;;;;;;5075407;28;20039;-95
2022/02/16 11:30:48;;;;;;;38.78;20.63;;;4.00;99.90;;;;;;5075059;28;20074;-95
2022/02/16 11:33:20;;;;;;;40.78;20.98;;;4.00;99.90;;;;;;5074675;28;20029;-95
2022/02/16 11:35:51;;;;;;;44.13;22.65;;;4.00;99.90;;;;;;5075717;28;20027;-94
2022/02/16 11:38:37;;;;;;;42.45;22.13;;;4.00;99.90;;;;;;5077923;28;20038;-95
2022/02/16 11:41:24;;;;;;;45.40;23.60;;;4.00;99.90;;;;;;5076840;28;20017;-96
2022/02/16 11:43:54;;;;;;;43.25;22.98;;;4.00;99.90;;;;;;5074654;28;20031;-94
2022/02/16 11:46:43;;;;;;;46.70;24.23;;;4.00;99.90;;;;;;5074719;28;20024;-95
2022/02/16 11:49:30;;;;;;;47.50;25.35;;;4.10;99.90;;;;;;5074647;28;20028;-96
2022/02/16 11:51:57;;;;;;;50.17;25.80;;;4.20;99.90;;;;;;5059126;28;20037;-96
2022/02/16 11:54:44;;;;;;;45.85;26.25;;;4.20;99.90;;;;;;5074302;28;20035;-95
2022/02/16 11:57:38;;;;;;;44.20;21.38;;;4.30;99.90;;;;;;5074229;28;20025;-95
2022/02/16 12:00:18;;;;;;;49.70;24.42;;;4.40;99.90;;;;;;5071023;28;20390;-95
2022/02/16 12:03:14;;;;;;;51.40;25.33;;;4.30;99.90;;;;;;5075394;28;20031;-96
2022/02/16 12:06:00;;;;;;;41.88;22.35;;;4.30;99.90;;;;;;5072651;28;20038;-95
2022/02/16 12:08:47;;;;;;;51.05;24.38;;;4.30;99.90;;;;;;5074634;28;20031;-94
2022/02/16 12:11:16;;;;;;;48.05;24.23;;;4.30;99.90;;;;;;5074056;28;20059;-95
2022/02/16 12:13:54;;;;;;;46.63;24.08;;;4.30;99.90;;;;;;5057455;28;20032;-94
2022/02/16 12:16:27;;;;;;;48.35;24.20;;;4.30;99.90;;;;;;5058409;28;20021;-93
2022/02/16 12:19:00;;;;;;;54.92;27.08;;;4.30;99.90;;;;;;5062524;28;20021;-94
2022/02/16 12:21:32;;;;;;;56.95;28.08;;;4.30;99.90;;;;;;5056818;28;20020;-95
2022/02/16 12:24:01;;;;;;;54.58;28.10;;;4.30;99.90;;;;;;5057286;28;20027;-95
2022/02/16 12:26:34;;;;;;;49.47;26.00;;;4.30;99.90;;;;;;5057104;28;20020;-95
2022/02/16 12:29:04;;;;;;;52.35;27.23;;;4.30;99.90;;;;;;5057193;28;20021;-94
2022/02/16 12:31:34;;;;;;;59.28;27.17;;;4.30;99.90;;;;;;5056944;28;20107;-95
2022/02/16 12:34:12;;;;;;;55.97;27.00;;;4.30;99.90;;;;;;5056959;28;20467;-95
2022/02/16 12:36:43;;;;;;;60.05;30.25;;;4.30;99.90;;;;;;5056778;28;20020;-95
2022/02/16 12:39:10;;;;;;;56.92;26.83;;;4.30;99.90;;;;;;5056877;28;20020;-95
2022/02/16 12:41:37;;;;;;;62.17;28.23;;;4.30;99.90;;;;;;5056699;28;20020;-94